createdAt,value
2024-04-19T00:00:25.433Z,57.18
2024-04-19T00:01:25.616Z,55.24
2024-04-19T00:02:25.587Z,56.32
2024-04-19T00:03:25.780Z,56.91
2024-04-19T00:04:25.851Z,55.17
2024-04-19T00:05:25.810Z,55.41
2024-04-19T00:06:25.969Z,55.70
2024-04-19T00:07:25.991Z,55.54
2024-04-19T00:08:26.100Z,56.09
2024-04-19T00:09:26.219Z,56.86
2024-04-19T00:10:26.285Z,56.13
2024-04-19T00:11:26.382Z,56.14
2024-04-19T00:12:26.496Z,56.60
2024-04-19T00:13:26.547Z,56.08
2024-04-19T00:14:26.658Z,55.89
2024-04-19T00:15:26.782Z,55.83
2024-04-19T00:16:26.875Z,54.96
2024-04-19T00:17:26.916Z,55.13
2024-04-19T00:18:27.100Z,55.61
2024-04-19T00:19:27.092Z,56.00
2024-04-19T00:20:27.235Z,55.08
2024-04-19T00:21:27.377Z,55.30
2024-04-19T00:22:27.400Z,54.43
2024-04-19T00:23:27.468Z,56.17
2024-04-19T00:24:27.612Z,54.95
2024-04-19T00:25:27.655Z,55.02
2024-04-19T00:26:27.757Z,54.43
2024-04-19T00:27:27.844Z,54.18
2024-04-19T00:28:27.948Z,54.77
2024-04-19T00:29:28.023Z,55.06
2024-04-19T00:30:28.174Z,55.17
2024-04-19T00:31:28.204Z,54.78
2024-04-19T00:32:28.347Z,55.04
2024-04-19T00:33:28.533Z,54.21
2024-04-19T00:34:28.583Z,55.21
2024-04-19T00:35:28.608Z,54.82
2024-04-19T00:36:28.730Z,54.38
2024-04-19T00:37:28.723Z,54.24
2024-04-19T00:38:28.838Z,53.55
2024-04-19T00:39:28.973Z,53.59
2024-04-19T00:40:29.045Z,53.41
2024-04-19T00:41:29.089Z,53.45
2024-04-19T00:42:29.223Z,53.10
2024-04-19T00:43:29.301Z,54.13
2024-04-19T00:44:29.378Z,53.45
2024-04-19T00:45:29.960Z,51.95
2024-04-19T00:46:29.571Z,52.28
2024-04-19T00:47:29.721Z,52.68
2024-04-19T00:48:29.767Z,52.96
2024-04-19T00:49:29.825Z,54.37
2024-04-19T00:50:29.936Z,53.19
2024-04-19T00:51:30.033Z,53.55
2024-04-19T00:52:30.088Z,52.37
2024-04-19T00:53:30.195Z,52.18
2024-04-19T00:54:30.353Z,52.55
2024-04-19T00:55:30.376Z,51.76
2024-04-19T00:56:30.451Z,52.65
2024-04-19T00:57:30.548Z,52.89
2024-04-19T00:58:30.650Z,52.52
2024-04-19T00:59:30.730Z,51.26
2024-04-19T01:00:30.924Z,52.05
2024-04-19T01:01:31.069Z,51.19
2024-04-19T01:02:31.034Z,52.90
2024-04-19T01:03:31.145Z,51.87
2024-04-19T01:04:32.075Z,51.57
2024-04-19T01:05:31.270Z,51.81
2024-04-19T01:06:31.391Z,51.01
2024-04-19T01:07:31.480Z,52.05
2024-04-19T01:08:31.594Z,50.47
2024-04-19T01:09:31.736Z,50.34
2024-04-19T01:10:31.749Z,50.25
2024-04-19T01:11:31.930Z,50.64
2024-04-19T01:12:31.952Z,51.68
2024-04-19T01:13:32.032Z,51.40
2024-04-19T01:14:32.139Z,52.95
2024-04-19T01:15:32.257Z,52.19
2024-04-19T01:16:32.326Z,51.05
2024-04-19T01:17:32.495Z,50.89
2024-04-19T01:18:32.580Z,52.29
2024-04-19T01:19:32.632Z,50.00
2024-04-19T01:20:32.741Z,50.62
2024-04-19T01:21:32.921Z,52.39
2024-04-19T01:22:32.929Z,51.86
2024-04-19T01:23:33.031Z,51.16
2024-04-19T01:24:33.163Z,51.08
2024-04-19T01:25:33.283Z,51.66
2024-04-19T01:26:33.327Z,50.72
2024-04-19T01:27:33.467Z,51.43
2024-04-19T01:28:33.507Z,51.18
2024-04-19T01:29:33.611Z,51.57
2024-04-19T01:30:33.773Z,50.32
2024-04-19T01:31:33.804Z,51.20
2024-04-19T01:32:34.016Z,51.53
2024-04-19T01:33:34.088Z,50.00
2024-04-19T01:34:34.099Z,50.38
2024-04-19T01:35:34.176Z,51.04
2024-04-19T01:36:34.465Z,51.26
2024-04-19T01:37:34.384Z,51.21
2024-04-19T01:38:34.506Z,51.86
2024-04-19T01:39:34.640Z,51.29
2024-04-19T01:40:34.695Z,51.18
2024-04-19T01:41:34.769Z,51.91
2024-04-19T01:42:34.890Z,52.36
2024-04-19T01:43:34.981Z,51.72
2024-04-19T01:44:35.075Z,53.07
2024-04-19T01:45:35.215Z,52.63
2024-04-19T01:46:35.309Z,53.25
2024-04-19T01:47:35.439Z,53.00
2024-04-19T01:48:36.151Z,52.13
2024-04-19T01:49:35.555Z,51.66
2024-04-19T01:50:35.665Z,50.66
2024-04-19T01:51:35.782Z,53.01
2024-04-19T01:52:35.859Z,51.57
2024-04-19T01:53:35.967Z,51.77
2024-04-19T01:54:36.139Z,51.52
2024-04-19T01:55:36.164Z,50.59
2024-04-19T01:56:36.272Z,51.26
2024-04-19T01:57:36.411Z,51.16
2024-04-19T01:58:36.492Z,51.43
2024-04-19T01:59:36.582Z,52.00
2024-04-19T02:00:36.735Z,50.50
2024-04-19T02:01:36.877Z,50.95
2024-04-19T02:02:36.874Z,51.93
2024-04-19T02:03:37.637Z,50.85
2024-04-19T02:04:37.200Z,51.15
2024-04-19T02:05:37.176Z,51.65
2024-04-19T02:06:37.354Z,52.81
2024-04-19T02:07:37.369Z,50.51
2024-04-19T02:08:37.461Z,52.24
2024-04-19T02:09:37.572Z,52.36
2024-04-19T02:10:37.646Z,50.87
2024-04-19T02:11:37.845Z,51.24
2024-04-19T02:12:37.971Z,50.64
2024-04-19T02:13:37.981Z,52.19
2024-04-19T02:14:38.082Z,52.39
2024-04-19T02:15:38.222Z,52.53
2024-04-19T02:16:38.318Z,51.68
2024-04-19T02:17:38.475Z,52.10
2024-04-19T02:18:38.594Z,51.33
2024-04-19T02:19:38.627Z,51.33
2024-04-19T02:20:38.732Z,52.09
2024-04-19T02:21:38.912Z,52.62
2024-04-19T02:22:38.939Z,51.50
2024-04-19T02:23:39.179Z,51.35
2024-04-19T02:24:39.204Z,50.41
2024-04-19T02:25:39.268Z,50.24
2024-04-19T02:26:39.389Z,51.54
2024-04-19T02:27:39.618Z,50.84
2024-04-19T02:28:39.621Z,51.49
2024-04-19T02:29:39.724Z,50.43
2024-04-19T02:30:39.876Z,51.55
2024-04-19T02:31:39.939Z,50.45
2024-04-19T02:32:40.120Z,51.91
2024-04-19T02:33:40.244Z,51.32
2024-04-19T02:34:41.545Z,51.25
2024-04-19T02:35:40.419Z,52.10
2024-04-19T02:36:40.546Z,53.88
2024-04-19T02:37:40.627Z,52.75
2024-04-19T02:38:40.735Z,52.14
2024-04-19T02:39:40.872Z,50.03
2024-04-19T02:40:40.959Z,51.19
2024-04-19T02:41:41.072Z,50.62
2024-04-19T02:42:41.276Z,50.48
2024-04-19T02:43:41.287Z,51.92
2024-04-19T02:44:41.405Z,51.45
2024-04-19T02:45:47.779Z,52.58
2024-04-19T02:46:42.607Z,52.71
2024-04-19T02:47:41.549Z,52.61
2024-04-19T02:48:41.529Z,51.22
2024-04-19T02:49:41.534Z,51.94
2024-04-19T02:50:41.546Z,51.67
2024-04-19T02:51:41.571Z,51.26
2024-04-19T02:52:41.524Z,52.26
2024-04-19T02:53:41.534Z,51.11
2024-04-19T02:54:41.555Z,51.35
2024-04-19T02:55:41.538Z,53.17
2024-04-19T02:56:41.547Z,50.94
2024-04-19T02:57:41.595Z,52.72
2024-04-19T02:58:41.568Z,51.06
2024-04-19T02:59:41.539Z,50.30
2024-04-19T03:00:41.683Z,51.09
2024-04-19T03:01:41.560Z,52.17
2024-04-19T03:02:41.623Z,51.68
2024-04-19T03:03:41.823Z,52.38
2024-04-19T03:04:41.877Z,51.81
2024-04-19T03:05:41.966Z,51.69
2024-04-19T03:06:42.121Z,51.53
2024-04-19T03:07:42.182Z,51.29
2024-04-19T03:08:42.318Z,51.16
2024-04-19T03:09:42.463Z,51.52
2024-04-19T03:10:42.553Z,52.61
2024-04-19T03:11:42.672Z,52.26
2024-04-19T03:12:42.826Z,52.78
2024-04-19T03:13:42.877Z,50.88
2024-04-19T03:14:42.976Z,51.55
2024-04-19T03:15:43.100Z,51.32
2024-04-19T03:16:43.220Z,52.95
2024-04-19T03:17:43.390Z,52.56
2024-04-19T03:18:43.507Z,52.34
2024-04-19T03:19:43.547Z,53.00
2024-04-19T03:20:43.666Z,52.57
2024-04-19T03:21:43.873Z,53.41
2024-04-19T03:22:44.012Z,53.00
2024-04-19T03:23:44.030Z,52.01
2024-04-19T03:24:44.224Z,51.49
2024-04-19T03:25:44.237Z,52.49
2024-04-19T03:26:44.366Z,50.96
2024-04-19T03:27:44.531Z,52.21
2024-04-19T03:28:44.583Z,51.39
2024-04-19T03:29:44.677Z,52.48
2024-04-19T03:30:44.873Z,51.46
2024-04-19T03:31:44.928Z,51.02
2024-04-19T03:32:45.079Z,52.69
2024-04-19T03:33:45.306Z,51.27
2024-04-19T03:34:45.248Z,50.87
2024-04-19T03:35:45.368Z,52.14
2024-04-19T03:36:45.526Z,51.90
2024-04-19T03:37:45.558Z,52.71
2024-04-19T03:38:45.694Z,52.64
2024-04-19T03:39:46.762Z,51.50
2024-04-19T03:40:45.934Z,51.83
2024-04-19T03:41:45.984Z,51.46
2024-04-19T03:42:46.228Z,53.13
2024-04-19T03:43:46.275Z,53.20
2024-04-19T03:44:46.372Z,52.87
2024-04-19T03:45:46.836Z,52.41
2024-04-19T03:46:46.630Z,52.55
2024-04-19T03:47:46.714Z,52.43
2024-04-19T03:48:46.896Z,52.64
2024-04-19T03:49:46.892Z,52.87
2024-04-19T03:50:47.004Z,51.53
2024-04-19T03:51:47.156Z,52.02
2024-04-19T03:52:47.242Z,51.26
2024-04-19T03:53:47.353Z,52.38
2024-04-19T03:54:47.517Z,50.98
2024-04-19T03:55:47.600Z,50.31
2024-04-19T03:56:47.676Z,50.90
2024-04-19T03:57:47.928Z,50.00
2024-04-19T03:58:47.902Z,51.70
2024-04-19T03:59:48.008Z,50.21
2024-04-19T04:00:48.281Z,50.92
2024-04-19T04:01:48.227Z,51.43
2024-04-19T04:02:48.354Z,50.95
2024-04-19T04:03:48.498Z,50.53
2024-04-19T04:04:48.597Z,50.94
2024-04-19T04:05:48.665Z,51.27
2024-04-19T04:06:48.830Z,50.38
2024-04-19T04:07:48.923Z,50.00
2024-04-19T04:08:48.967Z,50.83
2024-04-19T04:09:49.103Z,50.02
2024-04-19T04:10:49.262Z,52.77
2024-04-19T04:11:49.320Z,50.97
2024-04-19T04:12:49.430Z,51.37
2024-04-19T04:13:49.487Z,51.74
2024-04-19T04:14:49.606Z,51.88
2024-04-19T04:15:49.724Z,50.93
2024-04-19T04:16:49.760Z,51.33
2024-04-19T04:17:49.973Z,50.89
2024-04-19T04:18:50.078Z,51.25
2024-04-19T04:19:50.083Z,50.92
2024-04-19T04:20:50.132Z,50.66
2024-04-19T04:21:50.278Z,51.73
2024-04-19T04:22:50.331Z,51.82
2024-04-19T04:23:50.424Z,50.00
2024-04-19T04:24:50.626Z,51.82
2024-04-19T04:25:50.591Z,51.84
2024-04-19T04:26:50.685Z,51.71
2024-04-19T04:27:50.787Z,52.03
2024-04-19T04:28:50.871Z,52.93
2024-04-19T04:29:50.986Z,51.72
2024-04-19T04:30:51.091Z,51.09
2024-04-19T04:31:51.165Z,50.02
2024-04-19T04:32:51.247Z,54.09
2024-04-19T04:33:51.329Z,53.55
2024-04-19T04:34:51.405Z,50.00
2024-04-19T04:35:51.478Z,53.46
2024-04-19T04:36:51.581Z,54.42
2024-04-19T04:37:51.657Z,50.51
2024-04-19T04:38:51.754Z,53.02
2024-04-19T04:39:51.854Z,53.28
2024-04-19T04:40:51.879Z,53.72
2024-04-19T04:41:51.983Z,54.21
2024-04-19T04:42:52.168Z,53.93
2024-04-19T04:43:59.474Z,50.00
2024-04-19T04:44:59.479Z,50.00
2024-04-19T04:45:59.542Z,50.00
2024-04-19T04:46:59.491Z,50.00
2024-04-19T04:47:59.599Z,50.00
2024-04-19T04:48:59.540Z,52.61
2024-04-19T04:49:59.453Z,50.38
2024-04-19T04:50:59.460Z,49.39
2024-04-19T04:51:59.466Z,53.20
2024-04-19T04:52:59.471Z,52.19
2024-04-19T04:53:59.565Z,51.01
2024-04-19T04:54:59.461Z,51.93
2024-04-19T04:55:59.491Z,52.77
2024-04-19T04:56:59.467Z,52.26
2024-04-19T04:57:59.597Z,52.43
2024-04-19T04:58:59.480Z,51.52
2024-04-19T04:59:59.482Z,52.25
2024-04-19T05:00:59.699Z,52.44
2024-04-19T05:01:59.496Z,52.71
2024-04-19T05:02:59.601Z,51.81
2024-04-19T05:03:59.527Z,53.29
2024-04-19T05:05:01.994Z,53.48
2024-04-19T05:05:59.515Z,55.52
2024-04-19T05:06:59.609Z,54.65
2024-04-19T05:07:59.504Z,53.64
2024-04-19T05:08:59.519Z,51.59
2024-04-19T05:09:59.537Z,54.70
2024-04-19T05:10:59.524Z,50.73
2024-04-19T05:11:59.500Z,51.23
2024-04-19T05:12:59.507Z,54.04
2024-04-19T05:13:59.530Z,50.66
2024-04-19T05:14:59.512Z,50.96
2024-04-19T05:15:59.560Z,52.22
2024-04-19T05:16:59.493Z,51.63
2024-04-19T05:17:59.628Z,50.44
2024-04-19T05:18:59.610Z,56.02
2024-04-19T05:19:59.523Z,52.18
2024-04-19T05:20:59.509Z,55.33
2024-04-19T05:21:59.523Z,51.97
2024-04-19T05:22:59.533Z,52.41
2024-04-19T05:23:59.508Z,51.66
2024-04-19T05:24:59.602Z,51.87
2024-04-19T05:25:59.578Z,55.67
2024-04-19T05:26:59.543Z,52.47
2024-04-19T05:27:59.536Z,53.81
2024-04-19T05:28:59.550Z,51.71
2024-04-19T05:29:59.556Z,50.82
2024-04-19T05:30:59.558Z,55.15
2024-04-19T05:31:59.641Z,53.81
2024-04-19T05:32:59.580Z,51.24
2024-04-19T05:33:59.608Z,55.42
2024-04-19T05:34:59.715Z,56.33
2024-04-19T05:35:59.768Z,56.29
2024-04-19T05:36:59.875Z,55.98
2024-04-19T05:37:59.944Z,57.24
2024-04-19T05:39:00.048Z,55.68
2024-04-19T05:40:00.186Z,57.96
2024-04-19T05:41:00.208Z,58.73
2024-04-19T05:42:00.329Z,62.68
2024-04-19T05:43:00.451Z,64.44
2024-04-19T05:44:00.428Z,65.97
2024-04-19T05:45:00.502Z,69.50
2024-04-19T05:46:00.518Z,71.30
2024-04-19T05:47:00.521Z,75.65
2024-04-19T05:48:00.690Z,80.43
2024-04-19T05:49:00.649Z,83.18
2024-04-19T05:50:00.643Z,83.29
2024-04-19T05:51:00.586Z,83.75
2024-04-19T05:52:00.581Z,84.33
2024-04-19T05:53:00.577Z,84.98
2024-04-19T05:54:00.576Z,85.71
2024-04-19T05:55:00.689Z,88.84
2024-04-19T05:56:00.578Z,85.87
2024-04-19T05:57:00.581Z,86.61
2024-04-19T05:58:00.589Z,84.20
2024-04-19T05:59:00.582Z,86.91
2024-04-19T06:00:00.597Z,86.81
2024-04-19T06:01:00.636Z,84.35
2024-04-19T06:02:00.657Z,85.10
2024-04-19T06:03:00.748Z,86.02
2024-04-19T06:04:00.880Z,93.79
2024-04-19T06:05:00.873Z,94.02
2024-04-19T06:06:00.960Z,89.77
2024-04-19T06:07:01.063Z,88.98
2024-04-19T06:08:01.098Z,82.78
2024-04-19T06:09:01.180Z,73.93
2024-04-19T06:10:01.231Z,65.92
2024-04-19T06:11:01.439Z,64.28
2024-04-19T06:12:01.432Z,62.06
2024-04-19T06:13:01.550Z,51.04
2024-04-19T06:14:01.614Z,51.58
2024-04-19T06:15:01.678Z,51.39
2024-04-19T06:16:01.821Z,51.47
2024-04-19T06:17:01.832Z,50.96
2024-04-19T06:18:02.055Z,50.00
2024-04-19T06:19:02.088Z,50.51
2024-04-19T06:20:02.082Z,50.64
2024-04-19T06:21:02.173Z,51.89
2024-04-19T06:22:02.305Z,50.00
2024-04-19T06:23:02.311Z,51.28
2024-04-19T06:24:02.374Z,50.84
2024-04-19T06:25:02.538Z,50.00
2024-04-19T06:26:02.518Z,50.84
2024-04-19T06:27:02.603Z,50.31
2024-04-19T06:28:02.728Z,50.00
2024-04-19T06:29:02.766Z,52.34
2024-04-19T06:30:02.855Z,51.43
2024-04-19T06:31:02.939Z,54.97
2024-04-19T06:32:03.061Z,58.06
2024-04-19T06:33:03.170Z,56.12
2024-04-19T06:34:03.163Z,56.79
2024-04-19T06:35:03.243Z,55.74
2024-04-19T06:36:03.340Z,56.89
2024-04-19T06:37:03.412Z,53.81
2024-04-19T06:38:03.524Z,52.71
2024-04-19T06:39:03.627Z,50.41
2024-04-19T06:40:07.573Z,52.92
2024-04-19T06:41:03.678Z,53.02
2024-04-19T06:42:03.720Z,52.98
2024-04-19T06:43:03.666Z,53.28
2024-04-19T06:44:03.685Z,50.33
2024-04-19T06:45:03.643Z,51.88
2024-04-19T06:46:03.665Z,52.14
2024-04-19T06:47:03.674Z,53.50
2024-04-19T06:48:03.724Z,53.83
2024-04-19T06:49:03.701Z,50.57
2024-04-19T06:50:03.675Z,52.96
2024-04-19T06:51:03.658Z,52.30
2024-04-19T06:52:03.701Z,53.20
2024-04-19T06:53:03.660Z,52.99
2024-04-19T06:54:03.669Z,50.36
2024-04-19T06:55:27.168Z,50.82
2024-04-19T06:56:03.775Z,51.32
2024-04-19T06:57:03.852Z,52.56
2024-04-19T06:58:03.936Z,54.69
2024-04-19T06:59:03.939Z,56.27
2024-04-19T07:00:15.760Z,56.16
2024-04-19T07:01:15.565Z,51.18
2024-04-19T07:02:05.112Z,51.27
2024-04-19T07:03:05.914Z,52.70
2024-04-19T07:04:04.316Z,51.27
2024-04-19T07:05:04.079Z,53.02
2024-04-19T07:06:04.004Z,55.67
2024-04-19T07:07:04.016Z,59.35
2024-04-19T07:08:04.002Z,67.23
2024-04-19T07:09:04.001Z,70.56
2024-04-19T07:10:04.904Z,68.75
2024-04-19T07:11:03.973Z,74.18
2024-04-19T07:12:04.026Z,75.39
2024-04-19T07:13:04.288Z,78.93
2024-04-19T07:14:03.997Z,82.73
2024-04-19T07:15:03.983Z,86.86
2024-04-19T07:16:03.984Z,89.48
2024-04-19T07:17:04.011Z,93.62
2024-04-19T07:18:04.041Z,95.52
2024-04-19T07:19:04.012Z,101.20
2024-04-19T07:20:04.006Z,103.79
2024-04-19T07:21:04.002Z,106.43
2024-04-19T07:22:03.997Z,111.81
2024-04-19T07:23:03.992Z,113.65
2024-04-19T07:24:04.007Z,116.92
2024-04-19T07:25:04.083Z,122.68
2024-04-19T07:26:04.001Z,126.96
2024-04-19T07:27:03.990Z,131.73
2024-04-19T07:28:04.133Z,134.86
2024-04-19T07:29:04.147Z,139.38
2024-04-19T07:30:04.255Z,143.51
2024-04-19T07:31:04.356Z,148.44
2024-04-19T07:32:04.475Z,149.64
2024-04-19T07:33:04.581Z,153.00
2024-04-19T07:34:04.635Z,155.42
2024-04-19T07:35:04.747Z,159.18
2024-04-19T07:36:04.810Z,161.51
2024-04-19T07:37:04.940Z,164.97
2024-04-19T07:38:05.008Z,167.07
2024-04-19T07:39:05.091Z,169.25
2024-04-19T07:40:05.197Z,172.03
2024-04-19T07:41:05.243Z,175.36
2024-04-19T07:42:05.350Z,174.62
2024-04-19T07:43:05.542Z,179.89
2024-04-19T07:44:05.525Z,184.47
2024-04-19T07:45:05.637Z,186.37
2024-04-19T07:46:05.674Z,189.19
2024-04-19T07:47:05.772Z,191.89
2024-04-19T07:48:05.961Z,198.12
2024-04-19T07:49:06.131Z,200.00
2024-04-19T07:50:06.037Z,198.54
2024-04-19T07:51:06.132Z,200.00
2024-04-19T07:52:06.239Z,200.00
2024-04-19T07:53:06.317Z,200.00
2024-04-19T07:54:06.416Z,192.09
2024-04-19T07:55:06.504Z,164.35
2024-04-19T07:56:06.632Z,138.18
2024-04-19T07:57:06.691Z,133.04
2024-04-19T07:58:06.773Z,127.20
2024-04-19T07:59:06.886Z,110.47
2024-04-19T08:00:06.943Z,97.60
2024-04-19T08:01:07.126Z,88.94
2024-04-19T08:02:07.286Z,86.68
2024-04-19T08:03:07.192Z,89.60
2024-04-19T08:04:07.328Z,92.92
2024-04-19T08:05:07.663Z,91.17
2024-04-19T08:06:07.406Z,89.98
2024-04-19T08:07:07.525Z,94.34
2024-04-19T08:08:07.604Z,97.85
2024-04-19T08:09:07.696Z,102.05
2024-04-19T08:10:07.809Z,102.56
2024-04-19T08:11:07.895Z,102.69
2024-04-19T08:12:08.054Z,102.13
2024-04-19T08:13:08.124Z,86.96
2024-04-19T08:14:08.183Z,73.01
2024-04-19T08:15:08.243Z,62.20
2024-04-19T08:16:08.380Z,54.43
2024-04-19T08:17:08.547Z,50.00
2024-04-19T08:18:09.412Z,50.08
2024-04-19T08:19:08.410Z,50.71
2024-04-19T08:20:08.414Z,51.12
2024-04-19T08:21:08.438Z,52.67
2024-04-19T08:22:08.416Z,57.54
2024-04-19T08:23:08.484Z,59.82
2024-04-19T08:24:08.470Z,63.66
2024-04-19T08:25:08.474Z,67.23
2024-04-19T08:26:08.487Z,70.13
2024-04-19T08:27:08.464Z,72.93
2024-04-19T08:28:08.491Z,77.75
2024-04-19T08:29:18.175Z,79.21
2024-04-19T08:30:09.604Z,79.46
2024-04-19T08:31:08.599Z,80.52
2024-04-19T08:32:08.663Z,83.68
2024-04-19T08:33:08.648Z,89.00
2024-04-19T08:34:08.718Z,96.50
2024-04-19T08:35:08.601Z,101.46
2024-04-19T08:36:08.650Z,104.35
2024-04-19T08:37:08.599Z,107.33
2024-04-19T08:38:08.617Z,111.35
2024-04-19T08:39:08.581Z,99.60
2024-04-19T08:40:08.682Z,86.74
2024-04-19T08:41:08.743Z,73.93
2024-04-19T08:42:08.858Z,63.47
2024-04-19T08:43:08.944Z,61.01
2024-04-19T08:44:09.067Z,61.09
2024-04-19T08:45:09.448Z,64.86
2024-04-19T08:46:09.662Z,68.76
2024-04-19T08:47:09.437Z,73.99
2024-04-19T08:48:09.400Z,79.88
2024-04-19T08:49:09.468Z,82.63
2024-04-19T08:50:09.495Z,86.58
2024-04-19T08:51:09.483Z,91.27
2024-04-19T08:53:15.453Z,103.08
2024-04-19T08:54:10.541Z,103.32
2024-04-19T08:55:09.543Z,104.59
2024-04-19T08:56:09.553Z,107.53
2024-04-19T08:57:09.555Z,115.60
2024-04-19T08:58:09.567Z,124.01
2024-04-19T08:59:09.540Z,128.77
2024-04-19T09:00:14.034Z,129.77
2024-04-19T09:01:10.623Z,130.02
2024-04-19T09:02:09.546Z,130.73
2024-04-19T09:03:09.653Z,133.37
2024-04-19T09:04:11.502Z,136.29
2024-04-19T09:05:09.579Z,141.84
2024-04-19T09:06:09.588Z,142.36
2024-04-19T09:07:09.593Z,143.30
2024-04-19T09:08:09.581Z,146.61
2024-04-19T09:09:09.552Z,146.72
2024-04-19T09:10:09.614Z,146.57
2024-04-19T09:11:09.562Z,146.62
2024-04-19T09:12:09.586Z,148.12
2024-04-19T09:13:09.555Z,149.58
2024-04-19T09:14:09.569Z,149.42
2024-04-19T09:15:09.588Z,149.38
2024-04-19T09:16:09.582Z,150.86
2024-04-19T09:17:09.589Z,151.02
2024-04-19T09:18:09.647Z,153.73
2024-04-19T09:19:09.588Z,153.49
2024-04-19T09:20:09.616Z,153.78
2024-04-19T09:21:09.588Z,152.41
2024-04-19T09:22:09.597Z,152.23
2024-04-19T09:23:09.602Z,153.49
2024-04-19T09:24:09.592Z,152.66
2024-04-19T09:25:09.611Z,155.22
2024-04-19T09:26:09.598Z,155.20
2024-04-19T09:27:15.217Z,154.98
2024-04-19T09:28:10.628Z,155.09
2024-04-19T09:29:09.620Z,155.31
2024-04-19T09:30:09.656Z,155.86
2024-04-19T09:31:09.643Z,155.50
2024-04-19T09:32:09.603Z,157.05
2024-04-19T09:33:09.785Z,155.21
2024-04-19T09:34:09.686Z,154.52
2024-04-19T09:35:09.638Z,156.79
2024-04-19T09:36:09.618Z,156.04
2024-04-19T09:37:09.623Z,156.87
2024-04-19T09:38:09.635Z,155.60
2024-04-19T09:39:12.280Z,155.90
2024-04-19T09:40:09.648Z,157.77
2024-04-19T09:41:09.626Z,156.11
2024-04-19T09:42:09.663Z,155.25
2024-04-19T09:43:09.740Z,155.68
2024-04-19T09:44:09.675Z,155.02
2024-04-19T09:45:09.703Z,154.64
2024-04-19T09:46:09.695Z,153.84
2024-04-19T09:47:09.727Z,155.46
2024-04-19T09:48:09.674Z,154.64
2024-04-19T09:49:09.703Z,156.25
2024-04-19T09:50:09.719Z,156.03
2024-04-19T09:51:09.725Z,156.79
2024-04-19T09:52:09.698Z,157.52
2024-04-19T09:53:09.694Z,159.54
2024-04-19T09:54:13.006Z,162.59
2024-04-19T09:55:09.680Z,162.70
2024-04-19T09:56:09.711Z,163.14
2024-04-19T09:57:09.698Z,164.67
2024-04-19T09:58:09.706Z,167.51
2024-04-19T09:59:09.690Z,170.20
2024-04-19T10:00:09.702Z,172.38
2024-04-19T10:01:09.767Z,176.61
2024-04-19T10:02:14.342Z,179.78
2024-04-19T10:03:10.825Z,180.13
2024-04-19T10:04:09.771Z,181.05
2024-04-19T10:05:09.741Z,183.93
2024-04-19T10:06:09.730Z,188.39
2024-04-19T10:07:09.733Z,196.97
2024-04-19T10:08:09.700Z,200.00
2024-04-19T10:09:09.740Z,199.14
2024-04-19T10:10:09.741Z,197.89
2024-04-19T10:11:09.843Z,199.03
2024-04-19T10:12:09.748Z,198.25
2024-04-19T10:13:09.754Z,199.37
2024-04-19T10:14:09.780Z,198.68
2024-04-19T10:15:09.801Z,198.65
2024-04-19T10:16:09.885Z,200.00
2024-04-19T10:17:09.900Z,199.62
2024-04-19T10:18:09.992Z,199.49
2024-04-19T10:19:10.049Z,199.10
2024-04-19T10:20:10.098Z,200.00
2024-04-19T10:21:10.133Z,200.00
2024-04-19T10:22:10.209Z,198.12
2024-04-19T10:23:10.288Z,200.00
2024-04-19T10:24:10.363Z,200.00
2024-04-19T10:25:10.418Z,199.77
2024-04-19T10:26:10.654Z,198.12
2024-04-19T10:27:10.581Z,198.96
2024-04-19T10:28:10.626Z,200.00
2024-04-19T10:29:10.763Z,199.32
2024-04-19T10:30:15.965Z,198.55
2024-04-19T10:31:11.771Z,198.76
2024-04-19T10:32:10.779Z,199.62
2024-04-19T10:33:10.762Z,202.38
2024-04-19T10:34:10.789Z,208.09
2024-04-19T10:35:10.796Z,216.32
2024-04-19T10:36:10.858Z,205.12
2024-04-19T10:37:10.809Z,200.40
2024-04-19T10:38:10.762Z,198.27
2024-04-19T10:39:10.764Z,199.21
2024-04-19T10:40:10.781Z,199.83
2024-04-19T10:41:10.788Z,200.00
2024-04-19T10:42:10.849Z,200.10
2024-04-19T10:43:10.905Z,200.00
2024-04-19T10:44:10.964Z,199.64
2024-04-19T10:45:11.019Z,199.78
2024-04-19T10:46:11.125Z,200.02
2024-04-19T10:47:11.212Z,200.00
2024-04-19T10:48:11.330Z,198.84
2024-04-19T10:49:11.358Z,199.89
2024-04-19T10:50:11.417Z,199.94
2024-04-19T10:51:11.462Z,184.93
2024-04-19T10:52:11.534Z,161.63
2024-04-19T10:53:11.698Z,135.44
2024-04-19T10:54:11.660Z,121.54
2024-04-19T10:55:11.749Z,109.03
2024-04-19T10:56:11.822Z,95.75
2024-04-19T10:57:11.920Z,87.19
2024-04-19T10:58:12.003Z,75.81
2024-04-19T10:59:12.104Z,67.34
2024-04-19T11:00:12.199Z,59.11
2024-04-19T11:01:12.329Z,50.61
2024-04-19T11:02:12.383Z,50.00
2024-04-19T11:03:18.388Z,50.58
2024-04-19T11:04:13.698Z,46.12
2024-04-19T11:05:12.479Z,40.96
2024-04-19T11:06:14.606Z,35.83
2024-04-19T11:07:12.469Z,31.55
2024-04-19T11:08:12.512Z,29.17
2024-04-19T11:09:12.548Z,36.55
2024-04-19T11:10:12.624Z,43.76
2024-04-19T11:11:12.624Z,50.14
2024-04-19T11:12:12.628Z,51.11
2024-04-19T11:13:12.632Z,50.45
2024-04-19T11:14:12.700Z,50.20
2024-04-19T11:15:12.722Z,50.42
2024-04-19T11:16:12.744Z,50.68
2024-04-19T11:17:13.225Z,50.03
2024-04-19T11:18:12.882Z,50.50
2024-04-19T11:19:12.934Z,50.54
2024-04-19T11:20:12.954Z,50.01
2024-04-19T11:21:13.916Z,50.00
2024-04-19T11:22:13.102Z,50.00
2024-04-19T11:23:13.214Z,50.00
2024-04-19T11:24:13.270Z,50.12
2024-04-19T11:25:13.378Z,50.00
2024-04-19T11:26:13.441Z,50.35
2024-04-19T11:27:13.591Z,50.00
2024-04-19T11:28:13.656Z,50.11
2024-04-19T11:29:13.732Z,50.21
2024-04-19T11:30:13.854Z,50.09
2024-04-19T11:31:13.950Z,50.13
2024-04-19T11:32:14.068Z,50.44
2024-04-19T11:33:14.167Z,50.48
2024-04-19T11:34:15.301Z,50.00
2024-04-19T11:35:14.327Z,51.78
2024-04-19T11:36:14.425Z,52.14
2024-04-19T11:37:14.546Z,53.30
2024-04-19T11:38:14.645Z,53.50
2024-04-19T11:39:14.753Z,54.29
2024-04-19T11:40:14.831Z,55.21
2024-04-19T11:41:14.926Z,56.38
2024-04-19T11:42:15.015Z,57.73
2024-04-19T11:43:15.127Z,58.28
2024-04-19T11:44:15.206Z,59.91
2024-04-19T11:45:15.307Z,62.60
2024-04-19T11:46:15.369Z,62.90
2024-04-19T11:47:15.490Z,62.99
2024-04-19T11:48:15.636Z,63.50
2024-04-19T11:49:16.288Z,63.50
2024-04-19T11:50:15.706Z,64.45
2024-04-19T11:51:15.872Z,64.25
2024-04-19T11:52:15.865Z,64.43
2024-04-19T11:53:15.943Z,63.62
2024-04-19T11:54:16.035Z,63.12
2024-04-19T11:55:16.157Z,63.60
2024-04-19T11:56:16.218Z,62.78
2024-04-19T11:57:16.314Z,63.54
2024-04-19T11:58:16.372Z,63.48
2024-04-19T11:59:16.486Z,62.72
2024-04-19T12:00:16.556Z,63.43
2024-04-19T12:01:16.722Z,62.95
2024-04-19T12:02:16.692Z,63.15
2024-04-19T12:03:16.777Z,62.67
2024-04-19T12:04:16.891Z,63.46
2024-04-19T12:05:16.964Z,63.36
2024-04-19T12:06:16.989Z,62.81
2024-04-19T12:07:17.113Z,63.43
2024-04-19T12:08:17.191Z,63.92
2024-04-19T12:09:17.229Z,64.28
2024-04-19T12:10:17.331Z,65.40
2024-04-19T12:11:17.470Z,65.50
2024-04-19T12:12:54.015Z,65.53
2024-04-19T12:14:07.591Z,65.57
2024-04-19T12:16:00.056Z,65.80
2024-04-19T12:16:37.335Z,65.77
2024-04-19T12:17:23.113Z,65.75
2024-04-19T12:18:18.689Z,65.78
2024-04-19T12:19:17.747Z,66.57
2024-04-19T12:20:25.275Z,67.43
2024-04-19T12:21:18.842Z,65.68
2024-04-19T12:22:19.110Z,66.00
2024-04-19T12:23:18.332Z,66.69
2024-04-19T12:24:18.140Z,67.29
2024-04-19T12:25:17.868Z,66.63
2024-04-19T12:26:19.083Z,66.59
2024-04-19T12:27:17.738Z,65.15
2024-04-19T12:28:17.674Z,64.91
2024-04-19T12:29:17.700Z,63.64
2024-04-19T12:30:17.668Z,62.77
2024-04-19T12:31:17.856Z,61.79
2024-04-19T12:32:17.855Z,61.71
2024-04-19T12:33:18.006Z,60.75
2024-04-19T12:34:18.011Z,58.74
2024-04-19T12:35:18.113Z,58.41
2024-04-19T12:36:18.225Z,57.22
2024-04-19T12:37:18.296Z,55.55
2024-04-19T12:38:18.399Z,54.09
2024-04-19T12:39:18.547Z,53.18
2024-04-19T12:40:18.614Z,52.74
2024-04-19T12:41:18.749Z,52.25
2024-04-19T12:42:18.777Z,52.07
2024-04-19T12:43:18.888Z,51.03
2024-04-19T12:44:18.997Z,51.40
2024-04-19T12:45:19.135Z,50.23
2024-04-19T12:46:19.201Z,50.63
2024-04-19T12:47:19.310Z,50.31
2024-04-19T12:48:19.775Z,50.26
2024-04-19T12:49:19.447Z,50.98
2024-04-19T12:50:19.445Z,51.40